EST,Max TemperatureF,Mean TemperatureF,Min TemperatureF,Max Dew PointF,MeanDew PointF,Min DewpointF,Max Humidity, Mean Humidity, Min Humidity, Max Sea Level PressureIn, Mean Sea Level PressureIn, Min Sea Level PressureIn, Max VisibilityMiles, Mean VisibilityMiles, Min VisibilityMiles, Max Wind SpeedMPH, Mean Wind SpeedMPH, Max Gust SpeedMPH,PrecipitationIn, CloudCover, Events, WindDirDegrees
2011-11-1,52,40,28,36,31,25,96,79,52,30.42,30.39,30.37,10,9,6,7,1,,0.00,1,,180
2011-11-2,53,39,25,38,31,22,92,80,50,30.42,30.34,30.22,10,10,8,6,1,,0.00,0,,198
2011-11-3,54,42,30,42,33,27,100,86,57,30.21,30.04,29.84,10,7,0,7,1,,0.00,3,Fog,198
2011-11-4,50,43,36,39,25,19,66,50,32,30.23,30.03,29.87,10,10,10,12,5,25,0.00,2,,316
2011-11-5,48,37,26,27,23,19,85,66,32,30.46,30.37,30.24,10,10,10,7,2,,0.00,0,,300
2011-11-6,53,36,21,31,25,18,89,72,30,30.45,30.38,30.28,10,10,10,8,1,,0.00,0,,220
2011-11-7,57,41,25,35,29,22,92,73,36,30.26,30.19,30.13,10,10,10,5,1,,0.00,0,,154
2011-11-8,64,48,32,45,37,29,93,73,41,30.24,30.20,30.14,10,9,6,7,1,,0.00,0,,210
2011-11-9,60,48,35,50,42,34,100,89,69,30.24,30.18,30.09,10,4,0,6,0,,0.00,3,Fog,177
2011-11-10,57,50,42,55,52,40,100,94,87,30.09,29.82,29.44,9,4,1,8,1,,0.81,8,Rain,142
2011-11-11,55,46,36,54,39,25,96,80,55,29.74,29.47,29.37,10,8,1,12,3,25,0.21,5,Rain,284
2011-11-12,48,38,27,31,27,21,89,64,48,30.08,29.96,29.78,10,10,10,13,5,21,0.00,1,,230
2011-11-13,54,41,28,48,39,26,92,79,62,30.16,30.06,29.91,10,10,8,13,2,24,0.00,0,,201
2011-11-14,60,56,52,51,44,42,93,68,51,29.89,29.79,29.71,10,10,4,10,7,16,0.07,2,Rain,213
2011-11-15,61,51,37,53,49,36,97,89,62,29.95,29.72,29.59,10,8,2,8,4,,0.32,3,Rain,205
2011-11-16,55,44,32,52,45,30,100,90,72,29.97,29.82,29.67,10,7,1,4,0,,0.20,6,Rain,160
2011-11-17,51,43,35,50,36,25,96,74,46,29.80,29.74,29.67,10,9,0,7,1,,0.01,7,Fog-Rain,306
2011-11-18,43,34,26,31,22,14,89,66,31,30.34,30.13,29.82,10,10,10,15,3,23,0.00,2,,283
2011-11-19,48,38,28,32,26,23,88,57,42,30.35,30.25,30.15,10,10,10,15,4,29,0.00,2,,219
2011-11-20,57,51,45,45,39,30,86,65,51,30.13,29.99,29.87,10,10,10,12,8,22,0.00,4,,227
2011-11-21,48,34,21,35,19,9,81,57,28,30.40,30.31,30.10,10,10,10,7,4,,0.00,0,,10
2011-11-22,42,30,19,28,22,15,85,74,45,30.44,30.39,30.30,10,10,10,5,0,,0.00,1,,240
2011-11-23,34,30,26,31,28,21,96,88,73,30.28,29.92,29.72,10,4,0,10,4,24,0.73,7,Fog-Rain-Snow,36
2011-11-24,36,30,23,30,24,19,93,84,67,30.14,30.09,29.99,10,8,0,7,2,,0.00,1,Fog,295
2011-11-25,45,33,21,38,28,19,93,89,71,30.11,30.00,29.92,10,7,2,6,0,,0.00,2,,210
2011-11-26,55,42,28,40,33,26,100,86,53,30.26,30.14,30.01,10,8,3,5,0,,0.00,2,,180
2011-11-27,51,40,30,48,41,29,96,88,71,30.31,30.21,30.09,10,7,1,10,2,,0.00,6,,135
2011-11-28,59,52,43,50,48,42,100,88,72,30.15,30.06,30.01,10,9,2,9,5,16,0.00,3,,216
2011-11-29,57,50,42,54,48,40,94,86,77,30.16,30.06,29.86,10,10,6,12,3,24,0.01,8,Rain,107
2011-11-30,59,48,35,56,46,32,94,80,57,29.81,29.67,29.56,10,9,4,17,9,31,0.27,5,Rain,200